sensor_id;sensor_type;location;lat;lon;timestamp;pressure;altitude;pressure_sealevel;temperature;humidity
42125;BME280;27787;44.594;11.046;2023-01-28T00:01:51;101083.19;;;3.81;71.60
42125;BME280;27787;44.594;11.046;2023-01-28T00:04:35;101072.72;;;3.79;71.89
42125;BME280;27787;44.594;11.046;2023-01-28T00:07:19;101069.88;;;3.75;72.22
42125;BME280;27787;44.594;11.046;2023-01-28T00:10:03;101073.38;;;3.75;72.19
42125;BME280;27787;44.594;11.046;2023-01-28T00:12:50;101076.94;;;3.77;72.30
42125;BME280;27787;44.594;11.046;2023-01-28T00:15:34;101080.28;;;3.73;72.67
42125;BME280;27787;44.594;11.046;2023-01-28T00:18:19;101080.28;;;3.73;72.58
42125;BME280;27787;44.594;11.046;2023-01-28T00:21:09;101075.88;;;3.72;72.44
42125;BME280;27787;44.594;11.046;2023-01-28T00:23:55;101082.00;;;3.73;72.57
42125;BME280;27787;44.594;11.046;2023-01-28T00:26:39;101080.03;;;3.67;72.81
42125;BME280;27787;44.594;11.046;2023-01-28T00:29:23;101082.66;;;3.67;72.60
42125;BME280;27787;44.594;11.046;2023-01-28T00:32:07;101087.56;;;3.60;73.51
42125;BME280;27787;44.594;11.046;2023-01-28T00:34:52;101095.31;;;3.58;73.34
42125;BME280;27787;44.594;11.046;2023-01-28T00:37:36;101100.50;;;3.57;73.56
42125;BME280;27787;44.594;11.046;2023-01-28T00:40:21;101098.66;;;3.54;74.02
42125;BME280;27787;44.594;11.046;2023-01-28T00:43:05;101101.19;;;3.52;74.33
42125;BME280;27787;44.594;11.046;2023-01-28T00:45:49;101098.50;;;3.51;74.45
42125;BME280;27787;44.594;11.046;2023-01-28T00:48:34;101095.88;;;3.51;74.66
42125;BME280;27787;44.594;11.046;2023-01-28T00:51:19;101102.28;;;3.58;74.93
42125;BME280;27787;44.594;11.046;2023-01-28T00:54:04;101098.38;;;3.69;74.91
42125;BME280;27787;44.594;11.046;2023-01-28T00:56:48;101108.53;;;3.83;74.52
42125;BME280;27787;44.594;11.046;2023-01-28T00:59:32;101103.03;;;3.98;74.39
42125;BME280;27787;44.594;11.046;2023-01-28T01:02:17;101112.97;;;4.07;73.31
42125;BME280;27787;44.594;11.046;2023-01-28T01:05:02;101100.94;;;4.12;72.85
42125;BME280;27787;44.594;11.046;2023-01-28T01:07:47;101101.84;;;4.12;72.95
42125;BME280;27787;44.594;11.046;2023-01-28T01:10:31;101115.84;;;4.14;72.74
42125;BME280;27787;44.594;11.046;2023-01-28T01:13:17;101109.94;;;4.19;72.76
42125;BME280;27787;44.594;11.046;2023-01-28T01:18:46;101125.56;;;4.17;73.13
42125;BME280;27787;44.594;11.046;2023-01-28T01:21:30;101129.06;;;4.18;73.26
42125;BME280;27787;44.594;11.046;2023-01-28T01:24:15;101122.94;;;4.17;73.59
42125;BME280;27787;44.594;11.046;2023-01-28T01:26:59;101130.69;;;4.15;73.31
42125;BME280;27787;44.594;11.046;2023-01-28T01:29:45;101123.75;;;4.16;73.63
42125;BME280;27787;44.594;11.046;2023-01-28T01:32:30;101143.22;;;4.24;73.60
42125;BME280;27787;44.594;11.046;2023-01-28T01:35:17;101139.06;;;4.29;73.42
42125;BME280;27787;44.594;11.046;2023-01-28T01:38:02;101143.72;;;4.36;73.22
42125;BME280;27787;44.594;11.046;2023-01-28T01:40:46;101142.66;;;4.31;73.52
42125;BME280;27787;44.594;11.046;2023-01-28T01:43:55;101137.88;;;4.21;74.18
42125;BME280;27787;44.594;11.046;2023-01-28T01:46:49;101136.63;;;4.11;74.87
42125;BME280;27787;44.594;11.046;2023-01-28T01:49:38;101140.59;;;4.02;75.91
42125;BME280;27787;44.594;11.046;2023-01-28T01:52:26;101138.88;;;4.02;76.22
42125;BME280;27787;44.594;11.046;2023-01-28T01:55:16;101146.84;;;4.05;76.90
42125;BME280;27787;44.594;11.046;2023-01-28T01:58:05;101147.97;;;4.12;76.54
42125;BME280;27787;44.594;11.046;2023-01-28T02:00:50;101143.84;;;4.17;76.37
42125;BME280;27787;44.594;11.046;2023-01-28T02:03:56;101144.94;;;4.24;76.12
42125;BME280;27787;44.594;11.046;2023-01-28T02:06:44;101149.66;;;4.32;75.92
42125;BME280;27787;44.594;11.046;2023-01-28T02:09:34;101148.81;;;4.33;75.87
42125;BME280;27787;44.594;11.046;2023-01-28T02:12:23;101152.28;;;4.32;76.39
42125;BME280;27787;44.594;11.046;2023-01-28T02:15:16;101151.66;;;4.39;76.36
42125;BME280;27787;44.594;11.046;2023-01-28T02:18:01;101153.78;;;4.50;76.10
42125;BME280;27787;44.594;11.046;2023-01-28T02:27:36;101162.16;;;4.63;74.95
42125;BME280;27787;44.594;11.046;2023-01-28T02:30:34;101160.28;;;4.59;75.62
42125;BME280;27787;44.594;11.046;2023-01-28T02:33:35;101159.91;;;4.50;76.16
42125;BME280;27787;44.594;11.046;2023-01-28T02:36:29;101174.34;;;4.40;76.82
42125;BME280;27787;44.594;11.046;2023-01-28T02:39:19;101174.13;;;4.34;76.93
42125;BME280;27787;44.594;11.046;2023-01-28T02:42:17;101168.56;;;4.27;76.92
42125;BME280;27787;44.594;11.046;2023-01-28T02:45:11;101171.13;;;4.25;77.83
42125;BME280;27787;44.594;11.046;2023-01-28T02:47:58;101170.19;;;4.23;77.48
42125;BME280;27787;44.594;11.046;2023-01-28T02:51:27;101174.47;;;4.21;78.04
42125;BME280;27787;44.594;11.046;2023-01-28T02:57:31;101170.84;;;4.18;78.83
42125;BME280;27787;44.594;11.046;2023-01-28T03:03:25;101168.34;;;4.21;80.80
42125;BME280;27787;44.594;11.046;2023-01-28T03:06:15;101180.06;;;4.30;81.25
42125;BME280;27787;44.594;11.046;2023-01-28T03:09:04;101173.19;;;4.32;81.33
42125;BME280;27787;44.594;11.046;2023-01-28T03:12:15;101174.28;;;4.39;82.08
42125;BME280;27787;44.594;11.046;2023-01-28T03:15:22;101171.97;;;4.47;82.05
42125;BME280;27787;44.594;11.046;2023-01-28T03:21:40;101167.44;;;4.42;82.10
42125;BME280;27787;44.594;11.046;2023-01-28T03:24:49;101167.22;;;4.36;83.15
42125;BME280;27787;44.594;11.046;2023-01-28T03:27:58;101158.59;;;4.39;83.30
42125;BME280;27787;44.594;11.046;2023-01-28T03:31:06;101161.94;;;4.35;84.02
42125;BME280;27787;44.594;11.046;2023-01-28T03:34:13;101164.38;;;4.30;84.67
42125;BME280;27787;44.594;11.046;2023-01-28T03:37:16;101166.81;;;4.26;84.72
42125;BME280;27787;44.594;11.046;2023-01-28T03:40:06;101163.41;;;4.28;84.67
42125;BME280;27787;44.594;11.046;2023-01-28T03:42:51;101162.34;;;4.23;84.96
42125;BME280;27787;44.594;11.046;2023-01-28T03:45:50;101159.75;;;4.23;85.16
42125;BME280;27787;44.594;11.046;2023-01-28T03:48:35;101158.78;;;4.21;85.50
42125;BME280;27787;44.594;11.046;2023-01-28T03:51:22;101162.25;;;4.20;85.40
42125;BME280;27787;44.594;11.046;2023-01-28T03:54:06;101161.47;;;4.23;85.55
42125;BME280;27787;44.594;11.046;2023-01-28T03:56:51;101158.78;;;4.21;85.10
42125;BME280;27787;44.594;11.046;2023-01-28T03:59:35;101165.78;;;4.22;85.47
42125;BME280;27787;44.594;11.046;2023-01-28T04:02:21;101168.53;;;4.25;85.55
42125;BME280;27787;44.594;11.046;2023-01-28T04:05:08;101165.19;;;4.29;85.03
42125;BME280;27787;44.594;11.046;2023-01-28T04:07:59;101164.38;;;4.30;85.16
42125;BME280;27787;44.594;11.046;2023-01-28T04:11:10;101165.28;;;4.31;85.23
42125;BME280;27787;44.594;11.046;2023-01-28T04:14:03;101165.19;;;4.29;85.16
42125;BME280;27787;44.594;11.046;2023-01-28T04:17:00;101170.56;;;4.32;85.45
42125;BME280;27787;44.594;11.046;2023-01-28T04:19:44;101173.28;;;4.35;84.97
42125;BME280;27787;44.594;11.046;2023-01-28T04:22:28;101176.78;;;4.36;84.85
42125;BME280;27787;44.594;11.046;2023-01-28T04:25:13;101169.66;;;4.32;85.08
42125;BME280;27787;44.594;11.046;2023-01-28T04:27:57;101169.66;;;4.32;85.45
42125;BME280;27787;44.594;11.046;2023-01-28T04:30:43;101174.84;;;4.30;85.48
42125;BME280;27787;44.594;11.046;2023-01-28T04:33:49;101180.06;;;4.30;85.64
42125;BME280;27787;44.594;11.046;2023-01-28T04:36:53;101175.59;;;4.28;85.40
42125;BME280;27787;44.594;11.046;2023-01-28T04:39:49;101178.16;;;4.26;86.01
42125;BME280;27787;44.594;11.046;2023-01-28T04:42:37;101180.06;;;4.30;86.22
42125;BME280;27787;44.594;11.046;2023-01-28T04:45:38;101190.75;;;4.36;85.87
42125;BME280;27787;44.594;11.046;2023-01-28T04:48:46;101192.53;;;4.37;85.79
42125;BME280;27787;44.594;11.046;2023-01-28T04:51:49;101199.53;;;4.38;85.56
42125;BME280;27787;44.594;11.046;2023-01-28T04:54:43;101206.47;;;4.38;85.55
42125;BME280;27787;44.594;11.046;2023-01-28T04:57:28;101207.31;;;4.37;85.53
42125;BME280;27787;44.594;11.046;2023-01-28T05:00:13;101207.97;;;4.31;85.30
42125;BME280;27787;44.594;11.046;2023-01-28T05:02:57;101214.72;;;4.26;85.86
42125;BME280;27787;44.594;11.046;2023-01-28T05:05:42;101218.09;;;4.24;86.12
42125;BME280;27787;44.594;11.046;2023-01-28T05:08:40;101221.50;;;4.21;86.27
42125;BME280;27787;44.594;11.046;2023-01-28T05:11:25;101225.06;;;4.23;86.72
42125;BME280;27787;44.594;11.046;2023-01-28T05:14:15;101233.78;;;4.24;86.46
42125;BME280;27787;44.594;11.046;2023-01-28T05:17:08;101234.69;;;4.24;86.32
42125;BME280;27787;44.594;11.046;2023-01-28T05:19:52;101242.56;;;4.26;86.45
42125;BME280;27787;44.594;11.046;2023-01-28T05:22:41;101240.75;;;4.23;86.31
42125;BME280;27787;44.594;11.046;2023-01-28T05:25:45;101240.63;;;4.20;86.69
42125;BME280;27787;44.594;11.046;2023-01-28T05:28:30;101244.00;;;4.18;86.55
42125;BME280;27787;44.594;11.046;2023-01-28T05:31:15;101249.28;;;4.19;86.72
42125;BME280;27787;44.594;11.046;2023-01-28T05:34:00;101249.28;;;4.19;86.78
42125;BME280;27787;44.594;11.046;2023-01-28T05:36:44;101245.53;;;4.12;86.71
42125;BME280;27787;44.594;11.046;2023-01-28T05:39:53;101246.84;;;4.03;87.62
42125;BME280;27787;44.594;11.046;2023-01-28T05:42:37;101239.16;;;4.06;87.94
42125;BME280;27787;44.594;11.046;2023-01-28T05:45:37;101242.66;;;4.06;87.55
42125;BME280;27787;44.594;11.046;2023-01-28T05:48:32;101242.78;;;4.09;87.62
42125;BME280;27787;44.594;11.046;2023-01-28T05:51:48;101251.56;;;4.11;87.31
42125;BME280;27787;44.594;11.046;2023-01-28T05:54:37;101252.97;;;4.03;87.85
42125;BME280;27787;44.594;11.046;2023-01-28T05:57:21;101257.63;;;3.90;88.11
42125;BME280;27787;44.594;11.046;2023-01-28T06:00:05;101264.31;;;3.83;88.66
42125;BME280;27787;44.594;11.046;2023-01-28T06:03:01;101262.25;;;3.76;89.81
42125;BME280;27787;44.594;11.046;2023-01-28T06:05:47;101263.16;;;3.76;89.85
42125;BME280;27787;44.594;11.046;2023-01-28T06:08:31;101268.66;;;3.82;89.97
42125;BME280;27787;44.594;11.046;2023-01-28T06:11:16;101260.81;;;3.82;89.85
42125;BME280;27787;44.594;11.046;2023-01-28T06:14:02;101267.13;;;3.88;89.82
42125;BME280;27787;44.594;11.046;2023-01-28T06:17:00;101265.09;;;3.80;89.63
42125;BME280;27787;44.594;11.046;2023-01-28T06:19:55;101275.59;;;3.82;90.25
42125;BME280;27787;44.594;11.046;2023-01-28T06:22:40;101280.53;;;3.76;90.49
42125;BME280;27787;44.594;11.046;2023-01-28T06:25:24;101285.81;;;3.77;91.04
42125;BME280;27787;44.594;11.046;2023-01-28T06:28:08;101292.69;;;3.75;90.69
42125;BME280;27787;44.594;11.046;2023-01-28T06:30:53;101290.72;;;3.70;91.05
42125;BME280;27787;44.594;11.046;2023-01-28T06:33:37;101289.84;;;3.69;91.43
42125;BME280;27787;44.594;11.046;2023-01-28T06:36:21;101293.34;;;3.70;91.30
42125;BME280;27787;44.594;11.046;2023-01-28T06:39:06;101300.34;;;3.71;91.39
42125;BME280;27787;44.594;11.046;2023-01-28T06:41:50;101302.47;;;3.60;91.37
42125;BME280;27787;44.594;11.046;2023-01-28T06:44:34;101305.31;;;3.45;92.20
42125;BME280;27787;44.594;11.046;2023-01-28T06:47:21;101310.03;;;3.35;92.91
42125;BME280;27787;44.594;11.046;2023-01-28T06:50:06;101306.81;;;3.21;93.85
42125;BME280;27787;44.594;11.046;2023-01-28T06:52:50;101316.91;;;3.13;94.55
42125;BME280;27787;44.594;11.046;2023-01-28T06:55:35;101329.94;;;3.13;95.19
42125;BME280;27787;44.594;11.046;2023-01-28T06:58:19;101325.31;;;3.08;95.65
42125;BME280;27787;44.594;11.046;2023-01-28T07:01:04;101330.34;;;3.03;96.51
42125;BME280;27787;44.594;11.046;2023-01-28T07:03:48;101340.91;;;3.06;96.65
42125;BME280;27787;44.594;11.046;2023-01-28T07:06:32;101345.09;;;3.03;96.58
42125;BME280;27787;44.594;11.046;2023-01-28T07:09:17;101342.25;;;2.98;96.94
42125;BME280;27787;44.594;11.046;2023-01-28T07:12:01;101350.06;;;2.98;97.08
42125;BME280;27787;44.594;11.046;2023-01-28T07:14:48;101354.56;;;3.01;97.32
42125;BME280;27787;44.594;11.046;2023-01-28T07:17:32;101359.91;;;3.04;97.31
42125;BME280;27787;44.594;11.046;2023-01-28T07:20:17;101361.25;;;3.13;97.63
42125;BME280;27787;44.594;11.046;2023-01-28T07:23:01;101354.94;;;3.28;96.75
42125;BME280;27787;44.594;11.046;2023-01-28T07:25:46;101363.47;;;3.43;96.29
42125;BME280;27787;44.594;11.046;2023-01-28T07:28:30;101364.09;;;3.57;95.40
42125;BME280;27787;44.594;11.046;2023-01-28T07:31:15;101362.16;;;3.72;94.16
42125;BME280;27787;44.594;11.046;2023-01-28T07:33:59;101367.81;;;3.81;93.25
42125;BME280;27787;44.594;11.046;2023-01-28T07:36:43;101378.72;;;3.92;92.79
42125;BME280;27787;44.594;11.046;2023-01-28T07:39:27;101380.78;;;3.99;91.83
42125;BME280;27787;44.594;11.046;2023-01-28T07:42:11;101378.50;;;4.06;91.51
42125;BME280;27787;44.594;11.046;2023-01-28T07:45:03;101384.56;;;4.05;91.19
42125;BME280;27787;44.594;11.046;2023-01-28T07:47:55;101388.06;;;4.06;90.52
42125;BME280;27787;44.594;11.046;2023-01-28T07:50:40;101386.34;;;4.06;90.99
42125;BME280;27787;44.594;11.046;2023-01-28T07:53:24;101389.72;;;4.04;91.07
42125;BME280;27787;44.594;11.046;2023-01-28T07:56:09;101395.91;;;4.06;90.50
42125;BME280;27787;44.594;11.046;2023-01-28T07:58:53;101401.44;;;4.13;90.58
42125;BME280;27787;44.594;11.046;2023-01-28T08:01:37;101397.94;;;4.13;90.10
42125;BME280;27787;44.594;11.046;2023-01-28T08:04:21;101400.47;;;4.11;89.79
42125;BME280;27787;44.594;11.046;2023-01-28T08:07:06;101402.28;;;4.12;90.47
42125;BME280;27787;44.594;11.046;2023-01-28T08:09:50;101413.53;;;4.11;89.80
42125;BME280;27787;44.594;11.046;2023-01-28T08:12:35;101419.34;;;4.04;90.59
42125;BME280;27787;44.594;11.046;2023-01-28T08:15:19;101410.47;;;4.01;91.02
42125;BME280;27787;44.594;11.046;2023-01-28T08:18:06;101418.34;;;4.02;90.80
42125;BME280;27787;44.594;11.046;2023-01-28T08:20:55;101419.75;;;3.94;90.50
42125;BME280;27787;44.594;11.046;2023-01-28T08:23:39;101423.66;;;3.84;91.12
42125;BME280;27787;44.594;11.046;2023-01-28T08:26:23;101422.03;;;3.67;92.07
42125;BME280;27787;44.594;11.046;2023-01-28T08:29:08;101428.72;;;3.62;92.36
42125;BME280;27787;44.594;11.046;2023-01-28T08:31:52;101428.47;;;3.56;92.28
42125;BME280;27787;44.594;11.046;2023-01-28T08:34:36;101427.63;;;3.57;92.18
42125;BME280;27787;44.594;11.046;2023-01-28T08:37:20;101437.13;;;3.55;93.21
42125;BME280;27787;44.594;11.046;2023-01-28T08:40:05;101442.59;;;3.61;93.15
42125;BME280;27787;44.594;11.046;2023-01-28T08:42:50;101440.63;;;3.75;92.58
42125;BME280;27787;44.594;11.046;2023-01-28T08:45:35;101440.09;;;3.82;92.16
42125;BME280;27787;44.594;11.046;2023-01-28T08:48:19;101437.16;;;3.94;92.02
42125;BME280;27787;44.594;11.046;2023-01-28T08:51:05;101445.38;;;4.03;90.98
42125;BME280;27787;44.594;11.046;2023-01-28T08:53:49;101440.09;;;4.01;90.73
42125;BME280;27787;44.594;11.046;2023-01-28T08:56:33;101445.72;;;4.10;90.98
42125;BME280;27787;44.594;11.046;2023-01-28T08:59:17;101441.09;;;4.24;90.90
42125;BME280;27787;44.594;11.046;2023-01-28T09:02:02;101448.41;;;4.31;90.17
42125;BME280;27787;44.594;11.046;2023-01-28T09:04:46;101445.91;;;4.34;89.37
42125;BME280;27787;44.594;11.046;2023-01-28T09:07:31;101449.06;;;4.27;89.47
42125;BME280;27787;44.594;11.046;2023-01-28T09:10:17;101444.53;;;4.23;90.16
42125;BME280;27787;44.594;11.046;2023-01-28T09:13:05;101453.28;;;4.24;90.50
42125;BME280;27787;44.594;11.046;2023-01-28T09:15:50;101455.94;;;4.25;90.12
42125;BME280;27787;44.594;11.046;2023-01-28T09:18:35;101456.03;;;4.27;90.38
42125;BME280;27787;44.594;11.046;2023-01-28T09:21:20;101465.56;;;4.26;90.06
42125;BME280;27787;44.594;11.046;2023-01-28T09:24:04;101461.75;;;4.18;90.61
42125;BME280;27787;44.594;11.046;2023-01-28T09:26:48;101465.19;;;4.17;91.45
42125;BME280;27787;44.594;11.046;2023-01-28T09:29:34;101460.28;;;4.25;91.56
42125;BME280;27787;44.594;11.046;2023-01-28T09:32:20;101468.03;;;4.42;91.17
42125;BME280;27787;44.594;11.046;2023-01-28T09:35:04;101470.84;;;4.47;89.59
42125;BME280;27787;44.594;11.046;2023-01-28T09:37:49;101470.63;;;4.42;90.58
42125;BME280;27787;44.594;11.046;2023-01-28T09:40:35;101474.56;;;4.52;89.23
42125;BME280;27787;44.594;11.046;2023-01-28T09:46:33;101471.94;;;4.52;89.98
42125;BME280;27787;44.594;11.046;2023-01-28T09:49:34;101466.34;;;4.64;87.08
42125;BME280;27787;44.594;11.046;2023-01-28T09:52:20;101475.78;;;4.60;87.27
42125;BME280;27787;44.594;11.046;2023-01-28T09:57:53;101477.22;;;4.54;84.74
42125;BME280;27787;44.594;11.046;2023-01-28T10:00:50;101472.91;;;4.54;83.77
42125;BME280;27787;44.594;11.046;2023-01-28T10:10:12;101476.63;;;4.59;80.98
42125;BME280;27787;44.594;11.046;2023-01-28T10:19:33;101477.63;;;4.63;82.12
42125;BME280;27787;44.594;11.046;2023-01-28T10:22:24;101471.56;;;4.64;81.18
42125;BME280;27787;44.594;11.046;2023-01-28T10:25:21;101471.44;;;4.61;81.92
42125;BME280;27787;44.594;11.046;2023-01-28T10:28:09;101467.19;;;4.63;82.20
42125;BME280;27787;44.594;11.046;2023-01-28T10:31:01;101477.75;;;4.66;82.51
42125;BME280;27787;44.594;11.046;2023-01-28T10:33:45;101476.09;;;4.68;81.40
42125;BME280;27787;44.594;11.046;2023-01-28T10:36:30;101470.69;;;4.63;82.00
42125;BME280;27787;44.594;11.046;2023-01-28T10:39:16;101479.34;;;4.62;82.88
42125;BME280;27787;44.594;11.046;2023-01-28T10:42:01;101469.78;;;4.63;82.67
42125;BME280;27787;44.594;11.046;2023-01-28T10:44:46;101469.97;;;4.67;83.29
42125;BME280;27787;44.594;11.046;2023-01-28T10:47:38;101470.25;;;4.73;82.30
42125;BME280;27787;44.594;11.046;2023-01-28T10:50:27;101466.16;;;4.80;82.45
42125;BME280;27787;44.594;11.046;2023-01-28T10:53:12;101466.16;;;4.80;80.77
42125;BME280;27787;44.594;11.046;2023-01-28T10:55:59;101459.97;;;4.78;82.36
42125;BME280;27787;44.594;11.046;2023-01-28T10:58:57;101461.97;;;4.84;83.43
42125;BME280;27787;44.594;11.046;2023-01-28T11:01:52;101470.22;;;4.94;83.95
42125;BME280;27787;44.594;11.046;2023-01-28T11:04:37;101465.97;;;4.96;83.92
42125;BME280;27787;44.594;11.046;2023-01-28T11:07:21;101467.94;;;5.02;83.59
42125;BME280;27787;44.594;11.046;2023-01-28T11:16:04;101455.94;;;5.07;83.70
42125;BME280;27787;44.594;11.046;2023-01-28T11:18:53;101465.00;;;5.15;82.65
42125;BME280;27787;44.594;11.046;2023-01-28T11:21:38;101467.03;;;5.22;81.33
42125;BME280;27787;44.594;11.046;2023-01-28T11:24:28;101459.47;;;5.30;79.61
42125;BME280;27787;44.594;11.046;2023-01-28T11:27:17;101458.69;;;5.32;79.85
42125;BME280;27787;44.594;11.046;2023-01-28T11:30:20;101457.97;;;5.35;77.44
42125;BME280;27787;44.594;11.046;2023-01-28T11:33:21;101459.03;;;5.40;75.43
42125;BME280;27787;44.594;11.046;2023-01-28T11:36:07;101460.75;;;5.40;74.07
42125;BME280;27787;44.594;11.046;2023-01-28T11:39:21;101446.03;;;5.43;72.56
42125;BME280;27787;44.594;11.046;2023-01-28T11:42:24;101450.94;;;5.34;73.28
42125;BME280;27787;44.594;11.046;2023-01-28T11:45:15;101456.03;;;5.31;72.04
42125;BME280;27787;44.594;11.046;2023-01-28T11:57:20;101438.25;;;5.45;73.44
42125;BME280;27787;44.594;11.046;2023-01-28T12:00:27;101426.41;;;5.54;72.41
42125;BME280;27787;44.594;11.046;2023-01-28T12:16:20;101408.44;;;5.87;72.08
42125;BME280;27787;44.594;11.046;2023-01-28T12:19:24;101405.41;;;5.99;71.78
42125;BME280;27787;44.594;11.046;2023-01-28T12:22:37;101399.56;;;6.06;71.42
42125;BME280;27787;44.594;11.046;2023-01-28T12:29:03;101400.59;;;6.11;70.57
42125;BME280;27787;44.594;11.046;2023-01-28T12:32:00;101394.25;;;6.05;71.05
42125;BME280;27787;44.594;11.046;2023-01-28T12:34:51;101393.47;;;6.07;70.60
42125;BME280;27787;44.594;11.046;2023-01-28T12:37:55;101383.81;;;6.06;70.55
42125;BME280;27787;44.594;11.046;2023-01-28T12:40:48;101384.88;;;6.11;70.76
42125;BME280;27787;44.594;11.046;2023-01-28T12:57:57;101382.63;;;6.47;69.95
42125;BME280;27787;44.594;11.046;2023-01-28T13:00:45;101386.19;;;6.49;70.11
42125;BME280;27787;44.594;11.046;2023-01-28T13:03:40;101389.69;;;6.50;69.21
42125;BME280;27787;44.594;11.046;2023-01-28T13:06:32;101390.44;;;6.46;66.20
42125;BME280;27787;44.594;11.046;2023-01-28T13:09:20;101389.41;;;6.41;66.44
42125;BME280;27787;44.594;11.046;2023-01-28T13:12:05;101388.28;;;6.34;68.69
42125;BME280;27787;44.594;11.046;2023-01-28T13:14:50;101387.06;;;6.25;69.70
42125;BME280;27787;44.594;11.046;2023-01-28T13:17:35;101384.53;;;6.26;69.97
42125;BME280;27787;44.594;11.046;2023-01-28T13:20:48;101389.00;;;6.29;65.70
42125;BME280;27787;44.594;11.046;2023-01-28T13:23:40;101387.91;;;6.24;64.64
42125;BME280;27787;44.594;11.046;2023-01-28T13:26:27;101385.47;;;6.28;65.22
42125;BME280;27787;44.594;11.046;2023-01-28T13:29:19;101389.22;;;6.36;64.86
42125;BME280;27787;44.594;11.046;2023-01-28T13:32:28;101388.06;;;6.52;64.85
42125;BME280;27787;44.594;11.046;2023-01-28T13:35:38;101388.25;;;6.58;64.33
42125;BME280;27787;44.594;11.046;2023-01-28T13:38:23;101388.19;;;6.57;64.13
42125;BME280;27787;44.594;11.046;2023-01-28T13:41:07;101382.06;;;6.56;64.42
42125;BME280;27787;44.594;11.046;2023-01-28T13:43:51;101393.81;;;6.67;66.08
42125;BME280;27787;44.594;11.046;2023-01-28T13:46:35;101389.81;;;6.78;67.04
42125;BME280;27787;44.594;11.046;2023-01-28T13:49:33;101388.38;;;6.90;67.48
42125;BME280;27787;44.594;11.046;2023-01-28T13:52:41;101387.00;;;7.01;67.10
42125;BME280;27787;44.594;11.046;2023-01-28T13:55:36;101387.13;;;7.04;66.96
42125;BME280;27787;44.594;11.046;2023-01-28T14:01:30;101390.47;;;7.00;66.49
42125;BME280;27787;44.594;11.046;2023-01-28T14:04:44;101392.16;;;6.98;66.46
42125;BME280;27787;44.594;11.046;2023-01-28T14:10:43;101396.56;;;6.99;67.31
42125;BME280;27787;44.594;11.046;2023-01-28T14:14:08;101395.00;;;7.04;66.16
42125;BME280;27787;44.594;11.046;2023-01-28T14:16:57;101395.19;;;7.10;65.87
42125;BME280;27787;44.594;11.046;2023-01-28T14:19:44;101397.06;;;7.14;65.34
42125;BME280;27787;44.594;11.046;2023-01-28T14:22:29;101398.81;;;7.15;65.14
42125;BME280;27787;44.594;11.046;2023-01-28T14:25:18;101403.25;;;7.16;65.13
42125;BME280;27787;44.594;11.046;2023-01-28T14:28:06;101403.34;;;7.19;65.19
42125;BME280;27787;44.594;11.046;2023-01-28T14:30:58;101402.50;;;7.20;64.87
42125;BME280;27787;44.594;11.046;2023-01-28T14:33:45;101397.25;;;7.20;63.93
42125;BME280;27787;44.594;11.046;2023-01-28T14:36:30;101399.03;;;7.21;63.63
42125;BME280;27787;44.594;11.046;2023-01-28T14:39:19;101392.91;;;7.21;63.52
42125;BME280;27787;44.594;11.046;2023-01-28T14:42:04;101408.69;;;7.22;63.12
42125;BME280;27787;44.594;11.046;2023-01-28T14:48:32;101408.88;;;7.28;62.45
42125;BME280;27787;44.594;11.046;2023-01-28T14:51:27;101417.84;;;7.35;62.36
42125;BME280;27787;44.594;11.046;2023-01-28T14:54:28;101424.91;;;7.37;61.54
42125;BME280;27787;44.594;11.046;2023-01-28T14:57:24;101422.44;;;7.42;61.23
42125;BME280;27787;44.594;11.046;2023-01-28T15:00:22;101428.84;;;7.52;60.87
42125;BME280;27787;44.594;11.046;2023-01-28T15:03:17;101432.50;;;7.55;60.23
42125;BME280;27787;44.594;11.046;2023-01-28T15:06:21;101439.38;;;7.52;60.09
42125;BME280;27787;44.594;11.046;2023-01-28T15:09:12;101440.94;;;7.45;60.35
42125;BME280;27787;44.594;11.046;2023-01-28T15:11:56;101445.13;;;7.40;60.62
42125;BME280;27787;44.594;11.046;2023-01-28T15:14:42;101447.50;;;7.31;60.92
42125;BME280;27787;44.594;11.046;2023-01-28T15:17:27;101452.44;;;7.22;61.38
42125;BME280;27787;44.594;11.046;2023-01-28T15:20:17;101446.09;;;7.15;61.63
42125;BME280;27787;44.594;11.046;2023-01-28T15:23:05;101440.78;;;7.14;61.70
42125;BME280;27787;44.594;11.046;2023-01-28T15:25:50;101441.53;;;7.09;61.28
42125;BME280;27787;44.594;11.046;2023-01-28T15:28:36;101447.63;;;7.08;61.64
42125;BME280;27787;44.594;11.046;2023-01-28T15:36:57;101451.88;;;7.03;62.26
42125;BME280;27787;44.594;11.046;2023-01-28T15:39:41;101457.91;;;7.02;62.10
42125;BME280;27787;44.594;11.046;2023-01-28T15:42:26;101455.19;;;6.99;62.03
42125;BME280;27787;44.594;11.046;2023-01-28T15:45:17;101455.03;;;6.93;62.01
42125;BME280;27787;44.594;11.046;2023-01-28T15:48:03;101460.22;;;6.92;62.53
42125;BME280;27787;44.594;11.046;2023-01-28T15:50:57;101463.72;;;6.92;62.93
42125;BME280;27787;44.594;11.046;2023-01-28T15:53:44;101467.19;;;6.91;62.82
42125;BME280;27787;44.594;11.046;2023-01-28T15:56:29;101470.59;;;6.89;63.03
42125;BME280;27787;44.594;11.046;2023-01-28T16:02:18;101476.63;;;6.86;62.82
42125;BME280;27787;44.594;11.046;2023-01-28T16:05:05;101478.31;;;6.84;62.96
42125;BME280;27787;44.594;11.046;2023-01-28T16:07:54;101480.84;;;6.81;62.86
42125;BME280;27787;44.594;11.046;2023-01-28T16:10:39;101479.09;;;6.82;62.99
42125;BME280;27787;44.594;11.046;2023-01-28T16:13:26;101482.69;;;6.84;62.97
42125;BME280;27787;44.594;11.046;2023-01-28T16:16:11;101486.03;;;6.79;62.98
42125;BME280;27787;44.594;11.046;2023-01-28T16:18:55;101486.03;;;6.79;63.15
42125;BME280;27787;44.594;11.046;2023-01-28T16:21:44;101491.13;;;6.75;63.21
42125;BME280;27787;44.594;11.046;2023-01-28T16:24:31;101487.59;;;6.74;63.54
42125;BME280;27787;44.594;11.046;2023-01-28T16:27:26;101488.53;;;6.76;63.95
42125;BME280;27787;44.594;11.046;2023-01-28T16:30:11;101487.78;;;6.79;64.41